sensor_id;sensor_type;location;lat;lon;timestamp;temperature;humidity
21092;DHT22;10704;42.678;23.288;2023-05-29T00:02:16;13.40;99.90
21092;DHT22;10704;42.678;23.288;2023-05-29T00:12:21;13.50;99.90
21092;DHT22;10704;42.678;23.288;2023-05-29T00:31:15;13.40;99.90
21092;DHT22;10704;42.678;23.288;2023-05-29T00:40:36;13.40;99.90
21092;DHT22;10704;42.678;23.288;2023-05-29T00:43:01;13.30;99.90
21092;DHT22;10704;42.678;23.288;2023-05-29T00:45:28;13.30;99.90
21092;DHT22;10704;42.678;23.288;2023-05-29T00:47:54;13.30;99.90
21092;DHT22;10704;42.678;23.288;2023-05-29T00:50:21;13.30;99.90
21092;DHT22;10704;42.678;23.288;2023-05-29T00:53:05;13.40;99.90
21092;DHT22;10704;42.678;23.288;2023-05-29T00:55:34;13.40;99.90
21092;DHT22;10704;42.678;23.288;2023-05-29T01:01:51;13.30;99.90
21092;DHT22;10704;42.678;23.288;2023-05-29T01:24:14;13.20;99.90
21092;DHT22;10704;42.678;23.288;2023-05-29T01:29:30;13.20;99.90
21092;DHT22;10704;42.678;23.288;2023-05-29T01:31:58;13.20;99.90
21092;DHT22;10704;42.678;23.288;2023-05-29T01:38:12;13.10;99.90
21092;DHT22;10704;42.678;23.288;2023-05-29T01:44:25;13.00;99.90
21092;DHT22;10704;42.678;23.288;2023-05-29T01:47:26;13.00;99.90
21092;DHT22;10704;42.678;23.288;2023-05-29T01:49:52;13.00;99.90
21092;DHT22;10704;42.678;23.288;2023-05-29T01:52:18;13.00;99.90
21092;DHT22;10704;42.678;23.288;2023-05-29T01:54:44;13.00;99.90
21092;DHT22;10704;42.678;23.288;2023-05-29T01:57:11;13.00;99.90
21092;DHT22;10704;42.678;23.288;2023-05-29T01:59:38;12.90;99.90
21092;DHT22;10704;42.678;23.288;2023-05-29T02:06:06;13.00;99.90
21092;DHT22;10704;42.678;23.288;2023-05-29T02:08:32;13.20;99.90
21092;DHT22;10704;42.678;23.288;2023-05-29T02:10:58;13.20;99.90
21092;DHT22;10704;42.678;23.288;2023-05-29T02:13:24;13.20;99.90
21092;DHT22;10704;42.678;23.288;2023-05-29T02:15:50;13.20;99.90
21092;DHT22;10704;42.678;23.288;2023-05-29T02:18:16;13.20;99.90
21092;DHT22;10704;42.678;23.288;2023-05-29T02:20:46;13.20;99.90
21092;DHT22;10704;42.678;23.288;2023-05-29T02:23:18;13.20;99.90
21092;DHT22;10704;42.678;23.288;2023-05-29T02:25:45;13.10;99.90
21092;DHT22;10704;42.678;23.288;2023-05-29T02:28:11;13.10;99.90
21092;DHT22;10704;42.678;23.288;2023-05-29T02:34:26;13.00;99.90
21092;DHT22;10704;42.678;23.288;2023-05-29T02:36:52;13.00;99.90
21092;DHT22;10704;42.678;23.288;2023-05-29T02:46:54;13.10;99.90
21092;DHT22;10704;42.678;23.288;2023-05-29T02:53:07;13.10;99.90
21092;DHT22;10704;42.678;23.288;2023-05-29T02:55:33;13.00;99.90
21092;DHT22;10704;42.678;23.288;2023-05-29T02:58:01;13.00;99.90
21092;DHT22;10704;42.678;23.288;2023-05-29T03:00:27;13.10;99.90
21092;DHT22;10704;42.678;23.288;2023-05-29T03:02:57;13.10;99.90
21092;DHT22;10704;42.678;23.288;2023-05-29T03:05:26;13.00;99.90
21092;DHT22;10704;42.678;23.288;2023-05-29T03:07:52;13.00;99.90
21092;DHT22;10704;42.678;23.288;2023-05-29T03:10:18;13.20;99.90
21092;DHT22;10704;42.678;23.288;2023-05-29T03:13:14;13.20;99.90
21092;DHT22;10704;42.678;23.288;2023-05-29T03:15:48;13.30;99.90
21092;DHT22;10704;42.678;23.288;2023-05-29T03:18:57;13.30;99.90
21092;DHT22;10704;42.678;23.288;2023-05-29T03:21:23;13.20;99.90
21092;DHT22;10704;42.678;23.288;2023-05-29T03:24:24;13.20;99.90
21092;DHT22;10704;42.678;23.288;2023-05-29T03:30:38;13.30;99.90
21092;DHT22;10704;42.678;23.288;2023-05-29T03:33:04;13.40;99.90
21092;DHT22;10704;42.678;23.288;2023-05-29T03:35:51;13.30;99.90
21092;DHT22;10704;42.678;23.288;2023-05-29T03:38:17;13.40;99.90
21092;DHT22;10704;42.678;23.288;2023-05-29T03:40:42;13.40;99.90
21092;DHT22;10704;42.678;23.288;2023-05-29T03:43:08;13.50;99.90
21092;DHT22;10704;42.678;23.288;2023-05-29T03:46:01;13.50;99.90
21092;DHT22;10704;42.678;23.288;2023-05-29T03:48:29;13.60;99.90
21092;DHT22;10704;42.678;23.288;2023-05-29T04:02:16;14.00;99.90
21092;DHT22;10704;42.678;23.288;2023-05-29T04:04:42;14.20;99.90
21092;DHT22;10704;42.678;23.288;2023-05-29T04:07:09;14.20;99.90
21092;DHT22;10704;42.678;23.288;2023-05-29T04:09:35;14.30;99.90
21092;DHT22;10704;42.678;23.288;2023-05-29T04:12:15;14.40;99.90
21092;DHT22;10704;42.678;23.288;2023-05-29T04:14:57;14.50;99.90
21092;DHT22;10704;42.678;23.288;2023-05-29T04:17:24;14.70;99.90
21092;DHT22;10704;42.678;23.288;2023-05-29T04:19:50;14.70;99.90
21092;DHT22;10704;42.678;23.288;2023-05-29T04:22:16;14.80;99.90
21092;DHT22;10704;42.678;23.288;2023-05-29T04:24:42;14.80;99.90
21092;DHT22;10704;42.678;23.288;2023-05-29T04:27:09;14.90;99.90
21092;DHT22;10704;42.678;23.288;2023-05-29T04:29:40;14.90;99.90
21092;DHT22;10704;42.678;23.288;2023-05-29T04:32:15;15.00;99.90
21092;DHT22;10704;42.678;23.288;2023-05-29T04:34:41;15.10;99.90
21092;DHT22;10704;42.678;23.288;2023-05-29T04:41:12;15.30;99.90
21092;DHT22;10704;42.678;23.288;2023-05-29T04:43:38;15.40;99.90
21092;DHT22;10704;42.678;23.288;2023-05-29T04:46:06;15.40;99.90
21092;DHT22;10704;42.678;23.288;2023-05-29T04:48:37;15.50;99.90
21092;DHT22;10704;42.678;23.288;2023-05-29T04:51:07;15.40;99.90
21092;DHT22;10704;42.678;23.288;2023-05-29T04:53:40;15.50;99.90
21092;DHT22;10704;42.678;23.288;2023-05-29T04:56:08;15.60;99.90
21092;DHT22;10704;42.678;23.288;2023-05-29T04:58:35;15.70;99.90
21092;DHT22;10704;42.678;23.288;2023-05-29T05:01:03;15.70;99.90
21092;DHT22;10704;42.678;23.288;2023-05-29T05:03:31;15.80;99.90
21092;DHT22;10704;42.678;23.288;2023-05-29T05:06:00;15.90;99.90
21092;DHT22;10704;42.678;23.288;2023-05-29T05:08:28;16.00;99.90
21092;DHT22;10704;42.678;23.288;2023-05-29T05:10:57;16.00;99.90
21092;DHT22;10704;42.678;23.288;2023-05-29T05:13:23;16.20;99.90
21092;DHT22;10704;42.678;23.288;2023-05-29T05:15:50;16.30;99.90
21092;DHT22;10704;42.678;23.288;2023-05-29T05:18:16;16.30;99.90
21092;DHT22;10704;42.678;23.288;2023-05-29T05:20:46;16.40;99.90
21092;DHT22;10704;42.678;23.288;2023-05-29T05:23:12;16.40;99.90
21092;DHT22;10704;42.678;23.288;2023-05-29T05:25:38;16.50;99.90
21092;DHT22;10704;42.678;23.288;2023-05-29T05:28:05;16.60;99.90
21092;DHT22;10704;42.678;23.288;2023-05-29T05:30:32;16.80;99.90
21092;DHT22;10704;42.678;23.288;2023-05-29T05:32:58;16.80;99.90
21092;DHT22;10704;42.678;23.288;2023-05-29T05:38:57;17.00;99.90
21092;DHT22;10704;42.678;23.288;2023-05-29T05:41:49;17.00;99.90
21092;DHT22;10704;42.678;23.288;2023-05-29T05:44:26;17.10;99.90
21092;DHT22;10704;42.678;23.288;2023-05-29T05:46:58;17.20;99.90
21092;DHT22;10704;42.678;23.288;2023-05-29T05:49:25;17.40;99.90
21092;DHT22;10704;42.678;23.288;2023-05-29T05:51:51;17.60;99.90
21092;DHT22;10704;42.678;23.288;2023-05-29T05:54:18;17.60;99.90
21092;DHT22;10704;42.678;23.288;2023-05-29T05:56:44;17.70;99.90
21092;DHT22;10704;42.678;23.288;2023-05-29T05:59:13;17.80;99.90
21092;DHT22;10704;42.678;23.288;2023-05-29T06:01:40;17.90;99.90
21092;DHT22;10704;42.678;23.288;2023-05-29T06:04:07;17.90;99.90
21092;DHT22;10704;42.678;23.288;2023-05-29T06:06:35;18.00;99.90
21092;DHT22;10704;42.678;23.288;2023-05-29T06:09:01;18.20;99.90
21092;DHT22;10704;42.678;23.288;2023-05-29T06:11:27;18.40;99.90
21092;DHT22;10704;42.678;23.288;2023-05-29T06:13:54;18.50;99.90
21092;DHT22;10704;42.678;23.288;2023-05-29T06:16:27;18.70;99.90
21092;DHT22;10704;42.678;23.288;2023-05-29T06:18:53;18.80;99.90
21092;DHT22;10704;42.678;23.288;2023-05-29T06:21:20;18.80;99.90
21092;DHT22;10704;42.678;23.288;2023-05-29T06:23:52;18.80;99.90
21092;DHT22;10704;42.678;23.288;2023-05-29T06:26:18;18.80;99.90
21092;DHT22;10704;42.678;23.288;2023-05-29T06:28:43;18.80;99.90
21092;DHT22;10704;42.678;23.288;2023-05-29T06:31:09;18.80;99.90
21092;DHT22;10704;42.678;23.288;2023-05-29T06:33:36;18.90;99.90
21092;DHT22;10704;42.678;23.288;2023-05-29T06:36:04;18.70;99.90
21092;DHT22;10704;42.678;23.288;2023-05-29T06:38:31;18.90;99.90
21092;DHT22;10704;42.678;23.288;2023-05-29T06:40:57;19.20;99.90
21092;DHT22;10704;42.678;23.288;2023-05-29T06:43:23;19.40;99.90
21092;DHT22;10704;42.678;23.288;2023-05-29T06:45:54;19.60;99.90
21092;DHT22;10704;42.678;23.288;2023-05-29T06:48:20;19.70;99.90
21092;DHT22;10704;42.678;23.288;2023-05-29T06:50:48;19.80;99.90
21092;DHT22;10704;42.678;23.288;2023-05-29T06:53:46;19.90;99.90
21092;DHT22;10704;42.678;23.288;2023-05-29T06:56:13;19.80;99.90
21092;DHT22;10704;42.678;23.288;2023-05-29T06:58:39;19.90;99.90
21092;DHT22;10704;42.678;23.288;2023-05-29T07:01:05;20.10;99.90
21092;DHT22;10704;42.678;23.288;2023-05-29T07:03:32;20.10;99.90
21092;DHT22;10704;42.678;23.288;2023-05-29T07:05:58;20.00;99.90
21092;DHT22;10704;42.678;23.288;2023-05-29T07:08:25;19.60;99.90
21092;DHT22;10704;42.678;23.288;2023-05-29T07:10:51;19.80;99.90
21092;DHT22;10704;42.678;23.288;2023-05-29T07:13:19;19.90;99.90
21092;DHT22;10704;42.678;23.288;2023-05-29T07:15:45;20.10;99.90
21092;DHT22;10704;42.678;23.288;2023-05-29T07:18:13;20.40;99.90
21092;DHT22;10704;42.678;23.288;2023-05-29T07:20:39;20.70;99.90
21092;DHT22;10704;42.678;23.288;2023-05-29T07:23:06;20.80;99.90
21092;DHT22;10704;42.678;23.288;2023-05-29T07:25:32;20.60;99.90
21092;DHT22;10704;42.678;23.288;2023-05-29T07:27:58;20.40;99.90
21092;DHT22;10704;42.678;23.288;2023-05-29T07:30:24;20.20;99.90
21092;DHT22;10704;42.678;23.288;2023-05-29T07:36:19;19.70;99.90
21092;DHT22;10704;42.678;23.288;2023-05-29T07:38:52;20.10;99.90
21092;DHT22;10704;42.678;23.288;2023-05-29T07:41:19;20.20;99.90
21092;DHT22;10704;42.678;23.288;2023-05-29T07:51:26;21.20;99.90
21092;DHT22;10704;42.678;23.288;2023-05-29T07:53:53;21.20;99.90
21092;DHT22;10704;42.678;23.288;2023-05-29T08:03:53;21.30;99.90
21092;DHT22;10704;42.678;23.288;2023-05-29T08:06:26;21.40;99.90
21092;DHT22;10704;42.678;23.288;2023-05-29T08:12:39;21.30;99.90
21092;DHT22;10704;42.678;23.288;2023-05-29T08:15:07;21.50;99.90
21092;DHT22;10704;42.678;23.288;2023-05-29T08:17:35;21.70;99.90
21092;DHT22;10704;42.678;23.288;2023-05-29T08:20:01;21.60;99.90
21092;DHT22;10704;42.678;23.288;2023-05-29T08:22:30;21.20;99.90
21092;DHT22;10704;42.678;23.288;2023-05-29T08:31:56;21.00;99.90
21092;DHT22;10704;42.678;23.288;2023-05-29T08:34:22;21.30;99.90
21092;DHT22;10704;42.678;23.288;2023-05-29T08:36:48;21.10;99.90
21092;DHT22;10704;42.678;23.288;2023-05-29T08:43:25;20.70;99.90
21092;DHT22;10704;42.678;23.288;2023-05-29T08:45:54;20.90;99.90
21092;DHT22;10704;42.678;23.288;2023-05-29T08:48:23;20.60;99.90
21092;DHT22;10704;42.678;23.288;2023-05-29T08:50:52;20.80;99.90
21092;DHT22;10704;42.678;23.288;2023-05-29T08:57:05;21.00;99.90
21092;DHT22;10704;42.678;23.288;2023-05-29T08:59:33;21.30;99.90
21092;DHT22;10704;42.678;23.288;2023-05-29T09:02:00;22.00;99.90
21092;DHT22;10704;42.678;23.288;2023-05-29T09:04:28;23.10;99.90
21092;DHT22;10704;42.678;23.288;2023-05-29T09:06:58;23.50;99.90
21092;DHT22;10704;42.678;23.288;2023-05-29T09:09:28;24.10;97.60
21092;DHT22;10704;42.678;23.288;2023-05-29T09:11:56;24.00;96.50
21092;DHT22;10704;42.678;23.288;2023-05-29T09:18:10;24.20;92.80
21092;DHT22;10704;42.678;23.288;2023-05-29T09:20:36;24.70;90.10
21092;DHT22;10704;42.678;23.288;2023-05-29T09:26:51;25.60;82.20
21092;DHT22;10704;42.678;23.288;2023-05-29T09:29:17;25.00;83.90
21092;DHT22;10704;42.678;23.288;2023-05-29T09:31:46;24.40;85.20
21092;DHT22;10704;42.678;23.288;2023-05-29T09:34:15;24.30;85.90
21092;DHT22;10704;42.678;23.288;2023-05-29T09:36:41;24.10;86.60
21092;DHT22;10704;42.678;23.288;2023-05-29T09:39:24;24.00;87.70
21092;DHT22;10704;42.678;23.288;2023-05-29T09:41:53;23.90;88.20
21092;DHT22;10704;42.678;23.288;2023-05-29T09:44:19;23.50;88.50
21092;DHT22;10704;42.678;23.288;2023-05-29T09:46:48;23.30;90.30
21092;DHT22;10704;42.678;23.288;2023-05-29T09:49:15;23.30;90.50
21092;DHT22;10704;42.678;23.288;2023-05-29T09:55:30;23.30;90.90
21092;DHT22;10704;42.678;23.288;2023-05-29T09:57:58;23.90;89.80
21092;DHT22;10704;42.678;23.288;2023-05-29T10:00:24;25.20;83.60
21092;DHT22;10704;42.678;23.288;2023-05-29T10:02:50;26.20;77.40
21092;DHT22;10704;42.678;23.288;2023-05-29T10:05:16;25.80;77.30
21092;DHT22;10704;42.678;23.288;2023-05-29T10:07:50;26.10;76.30
21092;DHT22;10704;42.678;23.288;2023-05-29T10:10:19;25.80;76.20
21092;DHT22;10704;42.678;23.288;2023-05-29T10:12:48;25.00;79.00
21092;DHT22;10704;42.678;23.288;2023-05-29T10:15:16;25.70;77.70
21092;DHT22;10704;42.678;23.288;2023-05-29T10:20:26;25.60;76.90
21092;DHT22;10704;42.678;23.288;2023-05-29T10:22:56;25.50;76.30
21092;DHT22;10704;42.678;23.288;2023-05-29T10:25:23;26.90;73.20
21092;DHT22;10704;42.678;23.288;2023-05-29T10:27:50;27.90;67.40
21092;DHT22;10704;42.678;23.288;2023-05-29T10:33:04;27.40;66.00
21092;DHT22;10704;42.678;23.288;2023-05-29T10:35:53;27.20;67.60
21092;DHT22;10704;42.678;23.288;2023-05-29T10:45:55;26.10;69.60
21092;DHT22;10704;42.678;23.288;2023-05-29T10:51:06;29.10;62.10
21092;DHT22;10704;42.678;23.288;2023-05-29T10:57:21;28.50;59.60
21092;DHT22;10704;42.678;23.288;2023-05-29T11:11:39;23.80;74.40
21092;DHT22;10704;42.678;23.288;2023-05-29T11:14:07;23.70;75.80
21092;DHT22;10704;42.678;23.288;2023-05-29T11:19:07;23.70;74.30
21092;DHT22;10704;42.678;23.288;2023-05-29T11:24:24;24.40;73.90
21092;DHT22;10704;42.678;23.288;2023-05-29T11:34:28;25.30;76.20
21092;DHT22;10704;42.678;23.288;2023-05-29T11:36:57;24.30;77.50
21092;DHT22;10704;42.678;23.288;2023-05-29T11:39:23;23.30;82.20
21092;DHT22;10704;42.678;23.288;2023-05-29T11:42:16;22.90;88.50
21092;DHT22;10704;42.678;23.288;2023-05-29T11:44:41;23.00;92.00
21092;DHT22;10704;42.678;23.288;2023-05-29T11:47:08;23.20;90.70
21092;DHT22;10704;42.678;23.288;2023-05-29T11:49:36;23.20;90.50
21092;DHT22;10704;42.678;23.288;2023-05-29T11:52:20;24.00;86.40
21092;DHT22;10704;42.678;23.288;2023-05-29T12:06:11;24.90;78.90
21092;DHT22;10704;42.678;23.288;2023-05-29T12:08:38;24.80;79.50
21092;DHT22;10704;42.678;23.288;2023-05-29T12:11:04;24.40;80.80
21092;DHT22;10704;42.678;23.288;2023-05-29T12:20:27;22.10;99.90
21092;DHT22;10704;42.678;23.288;2023-05-29T12:22:53;21.50;99.90
21092;DHT22;10704;42.678;23.288;2023-05-29T12:25:24;21.30;99.90
21092;DHT22;10704;42.678;23.288;2023-05-29T12:27:50;21.00;99.90
21092;DHT22;10704;42.678;23.288;2023-05-29T12:30:22;20.70;99.90
21092;DHT22;10704;42.678;23.288;2023-05-29T12:36:35;19.90;99.90
21092;DHT22;10704;42.678;23.288;2023-05-29T12:43:03;19.20;99.90
21092;DHT22;10704;42.678;23.288;2023-05-29T12:45:32;18.60;99.90
21092;DHT22;10704;42.678;23.288;2023-05-29T12:48:00;17.80;99.90
21092;DHT22;10704;42.678;23.288;2023-05-29T12:50:38;17.50;99.90
21092;DHT22;10704;42.678;23.288;2023-05-29T12:53:06;17.30;99.90
21092;DHT22;10704;42.678;23.288;2023-05-29T12:55:37;17.40;99.90
21092;DHT22;10704;42.678;23.288;2023-05-29T12:58:08;17.50;99.90
21092;DHT22;10704;42.678;23.288;2023-05-29T13:00:36;17.60;99.90
21092;DHT22;10704;42.678;23.288;2023-05-29T13:03:04;17.50;99.90
21092;DHT22;10704;42.678;23.288;2023-05-29T13:05:30;17.40;99.90
21092;DHT22;10704;42.678;23.288;2023-05-29T13:07:57;17.50;99.90
21092;DHT22;10704;42.678;23.288;2023-05-29T13:10:24;17.70;99.90
21092;DHT22;10704;42.678;23.288;2023-05-29T13:12:51;18.20;99.90
21092;DHT22;10704;42.678;23.288;2023-05-29T13:15:22;18.80;99.90
21092;DHT22;10704;42.678;23.288;2023-05-29T13:17:48;19.40;99.90
21092;DHT22;10704;42.678;23.288;2023-05-29T13:20:14;19.70;99.90
21092;DHT22;10704;42.678;23.288;2023-05-29T13:22:42;20.00;99.90
21092;DHT22;10704;42.678;23.288;2023-05-29T13:25:11;20.50;99.90
21092;DHT22;10704;42.678;23.288;2023-05-29T13:27:38;21.10;99.90
21092;DHT22;10704;42.678;23.288;2023-05-29T13:30:06;21.60;99.90
21092;DHT22;10704;42.678;23.288;2023-05-29T13:32:32;22.30;99.90
21092;DHT22;10704;42.678;23.288;2023-05-29T13:34:58;22.90;99.90
21092;DHT22;10704;42.678;23.288;2023-05-29T13:37:24;23.30;99.90
21092;DHT22;10704;42.678;23.288;2023-05-29T13:39:50;23.70;99.90
21092;DHT22;10704;42.678;23.288;2023-05-29T13:42:17;23.60;99.90
21092;DHT22;10704;42.678;23.288;2023-05-29T13:44:44;23.60;99.90
21092;DHT22;10704;42.678;23.288;2023-05-29T13:47:10;23.20;99.90
21092;DHT22;10704;42.678;23.288;2023-05-29T13:56:19;22.90;99.90
21092;DHT22;10704;42.678;23.288;2023-05-29T13:58:44;22.60;99.90
21092;DHT22;10704;42.678;23.288;2023-05-29T14:01:10;22.70;99.90
21092;DHT22;10704;42.678;23.288;2023-05-29T14:03:36;23.10;99.90
21092;DHT22;10704;42.678;23.288;2023-05-29T14:06:02;23.10;99.90
21092;DHT22;10704;42.678;23.288;2023-05-29T14:08:30;23.00;99.90
21092;DHT22;10704;42.678;23.288;2023-05-29T14:10:56;23.00;99.90
21092;DHT22;10704;42.678;23.288;2023-05-29T14:17:38;23.30;99.90
21092;DHT22;10704;42.678;23.288;2023-05-29T14:20:04;22.10;99.90
21092;DHT22;10704;42.678;23.288;2023-05-29T14:22:34;21.40;99.90
21092;DHT22;10704;42.678;23.288;2023-05-29T14:25:01;21.10;99.90
21092;DHT22;10704;42.678;23.288;2023-05-29T14:27:29;21.00;99.90
21092;DHT22;10704;42.678;23.288;2023-05-29T14:29:55;21.00;99.90
21092;DHT22;10704;42.678;23.288;2023-05-29T14:39:55;23.30;99.90
21092;DHT22;10704;42.678;23.288;2023-05-29T14:42:54;23.90;99.90
21092;DHT22;10704;42.678;23.288;2023-05-29T14:48:27;24.00;99.90
21092;DHT22;10704;42.678;23.288;2023-05-29T14:51:19;23.40;99.90
21092;DHT22;10704;42.678;23.288;2023-05-29T14:53:46;23.00;99.90
21092;DHT22;10704;42.678;23.288;2023-05-29T14:56:12;23.50;99.90
21092;DHT22;10704;42.678;23.288;2023-05-29T14:58:38;24.20;99.90
21092;DHT22;10704;42.678;23.288;2023-05-29T15:01:04;24.60;99.90
21092;DHT22;10704;42.678;23.288;2023-05-29T15:03:30;24.70;98.00
21092;DHT22;10704;42.678;23.288;2023-05-29T15:13:53;25.20;95.20
21092;DHT22;10704;42.678;23.288;2023-05-29T15:16:18;25.00;96.30
21092;DHT22;10704;42.678;23.288;2023-05-29T15:18:45;24.60;97.70
21092;DHT22;10704;42.678;23.288;2023-05-29T15:21:11;24.10;99.90
21092;DHT22;10704;42.678;23.288;2023-05-29T15:23:36;23.80;99.90
21092;DHT22;10704;42.678;23.288;2023-05-29T15:26:04;23.40;99.90
21092;DHT22;10704;42.678;23.288;2023-05-29T15:28:31;23.00;99.90
21092;DHT22;10704;42.678;23.288;2023-05-29T15:30:57;22.60;99.90
21092;DHT22;10704;42.678;23.288;2023-05-29T15:33:22;22.10;99.90
21092;DHT22;10704;42.678;23.288;2023-05-29T15:46:38;21.80;99.90
21092;DHT22;10704;42.678;23.288;2023-05-29T15:49:04;22.10;99.90
21092;DHT22;10704;42.678;23.288;2023-05-29T15:51:30;22.50;99.90
21092;DHT22;10704;42.678;23.288;2023-05-29T15:54:24;22.90;99.90
21092;DHT22;10704;42.678;23.288;2023-05-29T15:56:50;23.10;99.90
21092;DHT22;10704;42.678;23.288;2023-05-29T16:03:04;22.80;99.90
21092;DHT22;10704;42.678;23.288;2023-05-29T16:05:30;22.50;99.90
21092;DHT22;10704;42.678;23.288;2023-05-29T16:07:56;22.20;99.90
21092;DHT22;10704;42.678;23.288;2023-05-29T16:10:22;21.90;99.90
21092;DHT22;10704;42.678;23.288;2023-05-29T16:12:48;21.90;99.90
21092;DHT22;10704;42.678;23.288;2023-05-29T16:15:35;21.80;99.90
21092;DHT22;10704;42.678;23.288;2023-05-29T16:29:20;21.70;99.90
21092;DHT22;10704;42.678;23.288;2023-05-29T16:31:46;21.90;99.90
21092;DHT22;10704;42.678;23.288;2023-05-29T16:34:12;22.00;99.90
21092;DHT22;10704;42.678;23.288;2023-05-29T16:36:38;21.90;99.90
21092;DHT22;10704;42.678;23.288;2023-05-29T16:39:03;21.80;99.90
21092;DHT22;10704;42.678;23.288;2023-05-29T16:41:37;21.90;99.90
21092;DHT22;10704;42.678;23.288;2023-05-29T16:44:03;21.90;99.90
21092;DHT22;10704;42.678;23.288;2023-05-29T16:50:17;21.70;99.90
21092;DHT22;10704;42.678;23.288;2023-05-29T16:52:42;21.80;99.90
21092;DHT22;10704;42.678;23.288;2023-05-29T16:55:08;21.70;99.90
21092;DHT22;10704;42.678;23.288;2023-05-29T16:57:34;21.60;99.90
21092;DHT22;10704;42.678;23.288;2023-05-29T17:00:02;21.60;99.90
21092;DHT22;10704;42.678;23.288;2023-05-29T17:02:28;21.50;99.90
21092;DHT22;10704;42.678;23.288;2023-05-29T17:04:54;21.60;99.90
21092;DHT22;10704;42.678;23.288;2023-05-29T17:14:22;21.30;99.90
21092;DHT22;10704;42.678;23.288;2023-05-29T17:24:30;20.60;99.90
21092;DHT22;10704;42.678;23.288;2023-05-29T17:27:07;20.10;99.90
21092;DHT22;10704;42.678;23.288;2023-05-29T17:29:33;20.00;99.90
21092;DHT22;10704;42.678;23.288;2023-05-29T17:31:59;19.70;99.90
21092;DHT22;10704;42.678;23.288;2023-05-29T17:38:37;19.30;99.90
21092;DHT22;10704;42.678;23.288;2023-05-29T17:41:03;19.10;99.90
21092;DHT22;10704;42.678;23.288;2023-05-29T17:47:16;18.80;99.90
21092;DHT22;10704;42.678;23.288;2023-05-29T17:49:43;18.50;99.90
21092;DHT22;10704;42.678;23.288;2023-05-29T17:55:57;18.40;99.90
21092;DHT22;10704;42.678;23.288;2023-05-29T17:58:23;18.10;99.90
21092;DHT22;10704;42.678;23.288;2023-05-29T18:00:48;18.20;99.90
21092;DHT22;10704;42.678;23.288;2023-05-29T18:03:15;18.10;99.90
21092;DHT22;10704;42.678;23.288;2023-05-29T18:13:10;17.80;99.90
21092;DHT22;10704;42.678;23.288;2023-05-29T18:15:36;17.80;99.90
21092;DHT22;10704;42.678;23.288;2023-05-29T18:18:02;17.90;99.90
21092;DHT22;10704;42.678;23.288;2023-05-29T18:20:29;17.90;99.90
21092;DHT22;10704;42.678;23.288;2023-05-29T18:22:55;17.80;99.90
21092;DHT22;10704;42.678;23.288;2023-05-29T18:25:24;17.70;99.90
21092;DHT22;10704;42.678;23.288;2023-05-29T18:27:51;17.70;99.90
21092;DHT22;10704;42.678;23.288;2023-05-29T18:30:17;17.70;99.90
21092;DHT22;10704;42.678;23.288;2023-05-29T18:32:43;17.70;99.90
21092;DHT22;10704;42.678;23.288;2023-05-29T18:35:09;17.70;99.90
21092;DHT22;10704;42.678;23.288;2023-05-29T18:37:35;17.60;99.90
21092;DHT22;10704;42.678;23.288;2023-05-29T18:40:01;17.60;99.90
21092;DHT22;10704;42.678;23.288;2023-05-29T18:42:28;17.50;99.90
21092;DHT22;10704;42.678;23.288;2023-05-29T18:44:55;17.30;99.90
21092;DHT22;10704;42.678;23.288;2023-05-29T18:47:22;17.20;99.90
21092;DHT22;10704;42.678;23.288;2023-05-29T18:49:48;17.10;99.90
21092;DHT22;10704;42.678;23.288;2023-05-29T18:52:14;17.00;99.90
21092;DHT22;10704;42.678;23.288;2023-05-29T18:54:41;16.90;99.90
21092;DHT22;10704;42.678;23.288;2023-05-29T18:57:07;17.00;99.90
21092;DHT22;10704;42.678;23.288;2023-05-29T18:59:33;17.00;99.90
21092;DHT22;10704;42.678;23.288;2023-05-29T19:01:59;17.00;99.90
21092;DHT22;10704;42.678;23.288;2023-05-29T19:04:26;17.00;99.90
21092;DHT22;10704;42.678;23.288;2023-05-29T19:07:05;16.90;99.90
21092;DHT22;10704;42.678;23.288;2023-05-29T19:09:31;16.90;99.90
21092;DHT22;10704;42.678;23.288;2023-05-29T19:19:36;16.70;99.90
21092;DHT22;10704;42.678;23.288;2023-05-29T19:22:02;16.70;99.90
21092;DHT22;10704;42.678;23.288;2023-05-29T19:24:29;16.70;99.90
21092;DHT22;10704;42.678;23.288;2023-05-29T19:26:55;16.70;99.90
21092;DHT22;10704;42.678;23.288;2023-05-29T19:33:09;16.60;99.90
21092;DHT22;10704;42.678;23.288;2023-05-29T19:39:23;16.50;99.90
21092;DHT22;10704;42.678;23.288;2023-05-29T19:41:49;16.50;99.90
21092;DHT22;10704;42.678;23.288;2023-05-29T19:44:15;16.40;99.90
21092;DHT22;10704;42.678;23.288;2023-05-29T19:47:01;16.50;99.90
21092;DHT22;10704;42.678;23.288;2023-05-29T19:49:27;16.50;99.90
21092;DHT22;10704;42.678;23.288;2023-05-29T19:52:24;16.40;99.90
21092;DHT22;10704;42.678;23.288;2023-05-29T19:54:50;16.40;99.90
21092;DHT22;10704;42.678;23.288;2023-05-29T19:57:17;16.40;99.90
21092;DHT22;10704;42.678;23.288;2023-05-29T19:59:43;16.30;99.90
21092;DHT22;10704;42.678;23.288;2023-05-29T20:06:01;16.30;99.90
21092;DHT22;10704;42.678;23.288;2023-05-29T20:08:31;16.20;99.90
21092;DHT22;10704;42.678;23.288;2023-05-29T20:10:57;16.10;99.90
21092;DHT22;10704;42.678;23.288;2023-05-29T20:13:23;16.00;99.90
21092;DHT22;10704;42.678;23.288;2023-05-29T20:15:51;15.90;99.90
21092;DHT22;10704;42.678;23.288;2023-05-29T20:18:17;15.90;99.90
21092;DHT22;10704;42.678;23.288;2023-05-29T20:20:43;15.90;99.90
21092;DHT22;10704;42.678;23.288;2023-05-29T20:23:10;15.90;99.90
21092;DHT22;10704;42.678;23.288;2023-05-29T20:25:36;16.00;99.90
21092;DHT22;10704;42.678;23.288;2023-05-29T20:31:22;15.80;99.90
21092;DHT22;10704;42.678;23.288;2023-05-29T20:33:51;15.80;99.90
21092;DHT22;10704;42.678;23.288;2023-05-29T20:43:52;15.70;99.90
21092;DHT22;10704;42.678;23.288;2023-05-29T20:50:06;15.80;99.90
21092;DHT22;10704;42.678;23.288;2023-05-29T20:52:32;15.70;99.90
21092;DHT22;10704;42.678;23.288;2023-05-29T20:54:58;15.60;99.90
21092;DHT22;10704;42.678;23.288;2023-05-29T20:57:26;15.50;99.90
21092;DHT22;10704;42.678;23.288;2023-05-29T20:59:55;15.30;99.90
21092;DHT22;10704;42.678;23.288;2023-05-29T21:02:21;15.20;99.90
21092;DHT22;10704;42.678;23.288;2023-05-29T21:04:48;15.10;99.90
21092;DHT22;10704;42.678;23.288;2023-05-29T21:07:14;15.00;99.90
21092;DHT22;10704;42.678;23.288;2023-05-29T21:12:56;14.90;99.90
21092;DHT22;10704;42.678;23.288;2023-05-29T21:19:10;14.80;99.90
21092;DHT22;10704;42.678;23.288;2023-05-29T21:21:36;14.70;99.90
21092;DHT22;10704;42.678;23.288;2023-05-29T21:27:59;14.70;99.90